sensor_id;sensor_type;location;lat;lon;timestamp;temperature;humidity
22491;DHT22;11412;50.802;4.350;2022-11-03T00:00:54;14.40;99.90
22491;DHT22;11412;50.802;4.350;2022-11-03T00:03:19;14.40;99.90
22491;DHT22;11412;50.802;4.350;2022-11-03T00:05:45;14.20;99.90
22491;DHT22;11412;50.802;4.350;2022-11-03T00:08:30;14.50;99.90
22491;DHT22;11412;50.802;4.350;2022-11-03T00:11:14;14.40;99.90
22491;DHT22;11412;50.802;4.350;2022-11-03T00:13:41;14.30;99.90
22491;DHT22;11412;50.802;4.350;2022-11-03T00:16:09;14.50;99.90
22491;DHT22;11412;50.802;4.350;2022-11-03T00:18:36;14.40;99.90
22491;DHT22;11412;50.802;4.350;2022-11-03T00:21:11;14.40;99.90
22491;DHT22;11412;50.802;4.350;2022-11-03T00:23:38;14.30;99.90
22491;DHT22;11412;50.802;4.350;2022-11-03T00:26:05;14.50;99.90
22491;DHT22;11412;50.802;4.350;2022-11-03T00:28:32;14.40;99.90
22491;DHT22;11412;50.802;4.350;2022-11-03T00:30:59;14.50;99.90
22491;DHT22;11412;50.802;4.350;2022-11-03T00:33:25;14.30;99.90
22491;DHT22;11412;50.802;4.350;2022-11-03T00:35:59;14.30;99.90
22491;DHT22;11412;50.802;4.350;2022-11-03T00:38:26;14.20;99.90
22491;DHT22;11412;50.802;4.350;2022-11-03T00:41:00;14.30;99.90
22491;DHT22;11412;50.802;4.350;2022-11-03T00:43:27;14.40;99.90
22491;DHT22;11412;50.802;4.350;2022-11-03T00:45:53;14.40;99.90
22491;DHT22;11412;50.802;4.350;2022-11-03T00:48:19;14.40;99.90
22491;DHT22;11412;50.802;4.350;2022-11-03T00:51:10;14.30;99.90
22491;DHT22;11412;50.802;4.350;2022-11-03T00:56:11;14.20;99.90
22491;DHT22;11412;50.802;4.350;2022-11-03T00:58:38;14.40;99.90
22491;DHT22;11412;50.802;4.350;2022-11-03T01:01:10;14.50;99.90
22491;DHT22;11412;50.802;4.350;2022-11-03T01:03:38;14.60;99.90
22491;DHT22;11412;50.802;4.350;2022-11-03T01:06:06;14.50;99.90
22491;DHT22;11412;50.802;4.350;2022-11-03T01:08:51;14.40;99.90
22491;DHT22;11412;50.802;4.350;2022-11-03T01:11:19;14.40;99.90
22491;DHT22;11412;50.802;4.350;2022-11-03T01:14:04;14.50;99.90
22491;DHT22;11412;50.802;4.350;2022-11-03T01:16:31;14.50;99.90
22491;DHT22;11412;50.802;4.350;2022-11-03T01:18:57;14.50;99.90
22491;DHT22;11412;50.802;4.350;2022-11-03T01:21:23;14.60;99.90
22491;DHT22;11412;50.802;4.350;2022-11-03T01:23:49;14.50;99.90
22491;DHT22;11412;50.802;4.350;2022-11-03T01:26:15;14.50;99.90
22491;DHT22;11412;50.802;4.350;2022-11-03T01:28:43;14.30;99.90
22491;DHT22;11412;50.802;4.350;2022-11-03T01:31:17;14.20;99.90
22491;DHT22;11412;50.802;4.350;2022-11-03T01:33:43;14.40;99.90
22491;DHT22;11412;50.802;4.350;2022-11-03T01:36:10;14.40;99.90
22491;DHT22;11412;50.802;4.350;2022-11-03T01:38:36;14.40;99.90
22491;DHT22;11412;50.802;4.350;2022-11-03T01:41:04;14.30;99.90
22491;DHT22;11412;50.802;4.350;2022-11-03T01:43:30;14.40;99.90
22491;DHT22;11412;50.802;4.350;2022-11-03T01:46:06;14.50;99.90
22491;DHT22;11412;50.802;4.350;2022-11-03T01:48:34;14.30;99.90
22491;DHT22;11412;50.802;4.350;2022-11-03T01:51:02;14.40;99.90
22491;DHT22;11412;50.802;4.350;2022-11-03T01:53:29;14.20;99.90
22491;DHT22;11412;50.802;4.350;2022-11-03T01:55:55;14.20;99.90
22491;DHT22;11412;50.802;4.350;2022-11-03T01:58:28;14.50;99.90
22491;DHT22;11412;50.802;4.350;2022-11-03T02:00:56;14.50;99.90
22491;DHT22;11412;50.802;4.350;2022-11-03T02:03:23;14.40;99.90
22491;DHT22;11412;50.802;4.350;2022-11-03T02:05:51;14.50;99.90
22491;DHT22;11412;50.802;4.350;2022-11-03T02:10:47;14.50;99.90
22491;DHT22;11412;50.802;4.350;2022-11-03T02:13:24;14.20;99.90
22491;DHT22;11412;50.802;4.350;2022-11-03T02:15:53;14.30;99.90
22491;DHT22;11412;50.802;4.350;2022-11-03T02:18:25;14.30;99.90
22491;DHT22;11412;50.802;4.350;2022-11-03T02:21:05;14.40;99.90
22491;DHT22;11412;50.802;4.350;2022-11-03T02:23:58;14.30;99.90
22491;DHT22;11412;50.802;4.350;2022-11-03T02:26:25;14.20;99.90
22491;DHT22;11412;50.802;4.350;2022-11-03T02:28:51;14.50;99.90
22491;DHT22;11412;50.802;4.350;2022-11-03T02:33:58;14.40;99.90
22491;DHT22;11412;50.802;4.350;2022-11-03T02:36:39;14.40;99.90
22491;DHT22;11412;50.802;4.350;2022-11-03T02:39:18;14.40;99.90
22491;DHT22;11412;50.802;4.350;2022-11-03T02:41:46;14.50;99.90
22491;DHT22;11412;50.802;4.350;2022-11-03T02:44:16;14.70;99.90
22491;DHT22;11412;50.802;4.350;2022-11-03T02:46:44;14.60;99.90
22491;DHT22;11412;50.802;4.350;2022-11-03T02:49:11;14.60;99.90
22491;DHT22;11412;50.802;4.350;2022-11-03T02:51:37;14.50;99.90
22491;DHT22;11412;50.802;4.350;2022-11-03T02:54:11;14.40;99.90
22491;DHT22;11412;50.802;4.350;2022-11-03T02:56:46;14.50;99.90
22491;DHT22;11412;50.802;4.350;2022-11-03T02:59:16;14.50;99.90
22491;DHT22;11412;50.802;4.350;2022-11-03T03:01:53;14.50;99.90
22491;DHT22;11412;50.802;4.350;2022-11-03T03:04:33;14.60;99.90
22491;DHT22;11412;50.802;4.350;2022-11-03T03:07:05;14.60;99.90
22491;DHT22;11412;50.802;4.350;2022-11-03T03:09:38;14.40;99.90
22491;DHT22;11412;50.802;4.350;2022-11-03T03:12:07;14.40;99.90
22491;DHT22;11412;50.802;4.350;2022-11-03T03:14:37;14.50;99.90
22491;DHT22;11412;50.802;4.350;2022-11-03T03:17:07;14.60;99.90
22491;DHT22;11412;50.802;4.350;2022-11-03T03:19:48;14.60;99.90
22491;DHT22;11412;50.802;4.350;2022-11-03T03:22:42;14.70;99.90
22491;DHT22;11412;50.802;4.350;2022-11-03T03:25:22;14.60;99.90
22491;DHT22;11412;50.802;4.350;2022-11-03T03:27:54;14.50;99.90
22491;DHT22;11412;50.802;4.350;2022-11-03T03:30:22;14.50;99.90
22491;DHT22;11412;50.802;4.350;2022-11-03T03:32:48;14.30;99.90
22491;DHT22;11412;50.802;4.350;2022-11-03T03:35:25;14.30;99.90
22491;DHT22;11412;50.802;4.350;2022-11-03T03:37:53;14.30;99.90
22491;DHT22;11412;50.802;4.350;2022-11-03T03:40:26;14.20;99.90
22491;DHT22;11412;50.802;4.350;2022-11-03T03:42:53;14.30;99.90
22491;DHT22;11412;50.802;4.350;2022-11-03T03:45:19;14.60;99.90
22491;DHT22;11412;50.802;4.350;2022-11-03T03:47:45;14.60;99.90
22491;DHT22;11412;50.802;4.350;2022-11-03T03:50:12;14.70;99.90
22491;DHT22;11412;50.802;4.350;2022-11-03T03:52:38;14.60;99.90
22491;DHT22;11412;50.802;4.350;2022-11-03T03:55:06;14.70;99.90
22491;DHT22;11412;50.802;4.350;2022-11-03T03:57:35;14.60;99.90
22491;DHT22;11412;50.802;4.350;2022-11-03T04:00:00;14.50;99.90
22491;DHT22;11412;50.802;4.350;2022-11-03T04:02:26;14.50;99.90
22491;DHT22;11412;50.802;4.350;2022-11-03T04:04:51;14.70;99.90
22491;DHT22;11412;50.802;4.350;2022-11-03T04:07:17;14.50;99.90
22491;DHT22;11412;50.802;4.350;2022-11-03T04:10:01;14.30;99.90
22491;DHT22;11412;50.802;4.350;2022-11-03T04:12:27;14.40;99.90
22491;DHT22;11412;50.802;4.350;2022-11-03T04:15:11;14.40;99.90
22491;DHT22;11412;50.802;4.350;2022-11-03T04:17:56;14.40;99.90
22491;DHT22;11412;50.802;4.350;2022-11-03T04:20:40;14.40;99.90
22491;DHT22;11412;50.802;4.350;2022-11-03T04:23:24;14.40;99.90
22491;DHT22;11412;50.802;4.350;2022-11-03T04:25:52;14.40;99.90
22491;DHT22;11412;50.802;4.350;2022-11-03T04:28:18;14.20;99.90
22491;DHT22;11412;50.802;4.350;2022-11-03T04:30:44;14.50;99.90
22491;DHT22;11412;50.802;4.350;2022-11-03T04:33:13;14.50;99.90
22491;DHT22;11412;50.802;4.350;2022-11-03T04:35:40;14.30;99.90
22491;DHT22;11412;50.802;4.350;2022-11-03T04:40:45;14.60;99.90
22491;DHT22;11412;50.802;4.350;2022-11-03T04:43:16;14.70;99.90
22491;DHT22;11412;50.802;4.350;2022-11-03T04:45:44;14.60;99.90
22491;DHT22;11412;50.802;4.350;2022-11-03T04:48:12;14.50;99.90
22491;DHT22;11412;50.802;4.350;2022-11-03T04:50:40;14.70;99.90
22491;DHT22;11412;50.802;4.350;2022-11-03T04:53:12;14.60;99.90
22491;DHT22;11412;50.802;4.350;2022-11-03T04:55:39;14.50;99.90
22491;DHT22;11412;50.802;4.350;2022-11-03T04:58:27;14.50;99.90
22491;DHT22;11412;50.802;4.350;2022-11-03T05:00:56;14.40;99.90
22491;DHT22;11412;50.802;4.350;2022-11-03T05:03:30;14.70;99.90
22491;DHT22;11412;50.802;4.350;2022-11-03T05:05:56;14.50;99.90
22491;DHT22;11412;50.802;4.350;2022-11-03T05:08:24;14.40;99.90
22491;DHT22;11412;50.802;4.350;2022-11-03T05:10:49;14.30;99.90
22491;DHT22;11412;50.802;4.350;2022-11-03T05:13:25;14.60;99.90
22491;DHT22;11412;50.802;4.350;2022-11-03T05:15:56;14.60;99.90
22491;DHT22;11412;50.802;4.350;2022-11-03T05:18:30;14.70;99.90
22491;DHT22;11412;50.802;4.350;2022-11-03T05:21:02;14.70;99.90
22491;DHT22;11412;50.802;4.350;2022-11-03T05:23:36;14.40;99.90
22491;DHT22;11412;50.802;4.350;2022-11-03T05:26:03;14.40;99.90
22491;DHT22;11412;50.802;4.350;2022-11-03T05:28:34;14.40;99.90
22491;DHT22;11412;50.802;4.350;2022-11-03T05:31:01;14.50;99.90
22491;DHT22;11412;50.802;4.350;2022-11-03T05:33:36;14.40;99.90
22491;DHT22;11412;50.802;4.350;2022-11-03T05:36:19;14.40;99.90
22491;DHT22;11412;50.802;4.350;2022-11-03T05:38:45;14.50;99.90
22491;DHT22;11412;50.802;4.350;2022-11-03T05:41:22;14.50;99.90
22491;DHT22;11412;50.802;4.350;2022-11-03T05:44:02;14.50;99.90
22491;DHT22;11412;50.802;4.350;2022-11-03T05:46:33;14.40;99.90
22491;DHT22;11412;50.802;4.350;2022-11-03T05:49:01;14.30;99.90
22491;DHT22;11412;50.802;4.350;2022-11-03T05:51:31;14.20;99.90
22491;DHT22;11412;50.802;4.350;2022-11-03T05:54:01;14.30;99.90
22491;DHT22;11412;50.802;4.350;2022-11-03T05:56:30;14.10;99.90
22491;DHT22;11412;50.802;4.350;2022-11-03T05:58:59;14.00;99.90
22491;DHT22;11412;50.802;4.350;2022-11-03T06:01:31;14.10;99.90
22491;DHT22;11412;50.802;4.350;2022-11-03T06:04:18;14.10;99.90
22491;DHT22;11412;50.802;4.350;2022-11-03T06:06:50;14.10;99.90
22491;DHT22;11412;50.802;4.350;2022-11-03T06:09:20;14.10;99.90
22491;DHT22;11412;50.802;4.350;2022-11-03T06:11:47;14.10;99.90
22491;DHT22;11412;50.802;4.350;2022-11-03T06:14:16;14.30;99.90
22491;DHT22;11412;50.802;4.350;2022-11-03T06:16:52;14.20;99.90
22491;DHT22;11412;50.802;4.350;2022-11-03T06:19:28;14.30;99.90
22491;DHT22;11412;50.802;4.350;2022-11-03T06:22:00;14.10;99.90
22491;DHT22;11412;50.802;4.350;2022-11-03T06:24:30;14.00;99.90
22491;DHT22;11412;50.802;4.350;2022-11-03T06:26:56;14.10;99.90
22491;DHT22;11412;50.802;4.350;2022-11-03T06:29:23;14.20;99.90
22491;DHT22;11412;50.802;4.350;2022-11-03T06:31:50;14.20;99.90
22491;DHT22;11412;50.802;4.350;2022-11-03T06:34:36;14.20;99.90
22491;DHT22;11412;50.802;4.350;2022-11-03T06:37:22;14.10;99.90
22491;DHT22;11412;50.802;4.350;2022-11-03T06:39:50;14.00;99.90
22491;DHT22;11412;50.802;4.350;2022-11-03T06:42:19;14.00;99.90
22491;DHT22;11412;50.802;4.350;2022-11-03T06:44:47;14.20;99.90
22491;DHT22;11412;50.802;4.350;2022-11-03T06:47:20;14.30;99.90
22491;DHT22;11412;50.802;4.350;2022-11-03T06:49:55;14.30;99.90
22491;DHT22;11412;50.802;4.350;2022-11-03T06:52:34;14.20;99.90
22491;DHT22;11412;50.802;4.350;2022-11-03T06:55:35;14.10;99.90
22491;DHT22;11412;50.802;4.350;2022-11-03T06:58:35;14.20;99.90
22491;DHT22;11412;50.802;4.350;2022-11-03T07:01:09;14.30;99.90
22491;DHT22;11412;50.802;4.350;2022-11-03T07:03:36;14.20;99.90
22491;DHT22;11412;50.802;4.350;2022-11-03T07:06:14;14.30;99.90
22491;DHT22;11412;50.802;4.350;2022-11-03T07:08:44;14.30;99.90
22491;DHT22;11412;50.802;4.350;2022-11-03T07:11:18;14.20;99.90
22491;DHT22;11412;50.802;4.350;2022-11-03T07:13:45;14.10;99.90
22491;DHT22;11412;50.802;4.350;2022-11-03T07:16:15;14.10;99.90
22491;DHT22;11412;50.802;4.350;2022-11-03T07:18:43;14.20;99.90
22491;DHT22;11412;50.802;4.350;2022-11-03T07:21:39;14.40;99.90
22491;DHT22;11412;50.802;4.350;2022-11-03T07:24:24;14.30;99.90
22491;DHT22;11412;50.802;4.350;2022-11-03T07:26:59;14.20;99.90
22491;DHT22;11412;50.802;4.350;2022-11-03T07:29:28;14.10;99.90
22491;DHT22;11412;50.802;4.350;2022-11-03T07:31:56;14.10;99.90
22491;DHT22;11412;50.802;4.350;2022-11-03T07:34:30;14.00;99.90
22491;DHT22;11412;50.802;4.350;2022-11-03T07:36:56;14.00;99.90
22491;DHT22;11412;50.802;4.350;2022-11-03T07:39:23;14.00;99.90
22491;DHT22;11412;50.802;4.350;2022-11-03T07:41:50;14.00;99.90
22491;DHT22;11412;50.802;4.350;2022-11-03T07:44:18;14.00;99.90
22491;DHT22;11412;50.802;4.350;2022-11-03T07:46:48;14.00;99.90
22491;DHT22;11412;50.802;4.350;2022-11-03T07:49:32;14.00;99.90
22491;DHT22;11412;50.802;4.350;2022-11-03T07:51:58;14.10;99.90
22491;DHT22;11412;50.802;4.350;2022-11-03T07:54:28;14.20;99.90
22491;DHT22;11412;50.802;4.350;2022-11-03T07:56:59;14.20;99.90
22491;DHT22;11412;50.802;4.350;2022-11-03T07:59:39;14.10;99.90
22491;DHT22;11412;50.802;4.350;2022-11-03T08:02:30;14.00;99.90
22491;DHT22;11412;50.802;4.350;2022-11-03T08:04:56;14.10;99.90
22491;DHT22;11412;50.802;4.350;2022-11-03T08:07:23;14.00;99.90
22491;DHT22;11412;50.802;4.350;2022-11-03T08:09:49;14.10;99.90
22491;DHT22;11412;50.802;4.350;2022-11-03T08:12:14;14.10;99.90
22491;DHT22;11412;50.802;4.350;2022-11-03T08:14:40;14.20;99.90
22491;DHT22;11412;50.802;4.350;2022-11-03T08:17:05;14.10;99.90
22491;DHT22;11412;50.802;4.350;2022-11-03T08:19:31;14.10;99.90
22491;DHT22;11412;50.802;4.350;2022-11-03T08:21:57;14.10;99.90
22491;DHT22;11412;50.802;4.350;2022-11-03T08:24:23;14.10;99.90
22491;DHT22;11412;50.802;4.350;2022-11-03T08:26:48;14.20;99.90
22491;DHT22;11412;50.802;4.350;2022-11-03T08:29:14;14.20;99.90
22491;DHT22;11412;50.802;4.350;2022-11-03T08:31:42;14.10;99.90
22491;DHT22;11412;50.802;4.350;2022-11-03T08:34:08;14.40;99.90
22491;DHT22;11412;50.802;4.350;2022-11-03T08:36:34;14.20;99.90
22491;DHT22;11412;50.802;4.350;2022-11-03T08:38:59;14.30;99.90
22491;DHT22;11412;50.802;4.350;2022-11-03T08:41:25;14.10;99.90
22491;DHT22;11412;50.802;4.350;2022-11-03T08:43:50;14.00;99.90
22491;DHT22;11412;50.802;4.350;2022-11-03T08:46:16;14.00;99.90
22491;DHT22;11412;50.802;4.350;2022-11-03T08:48:42;13.90;99.90
22491;DHT22;11412;50.802;4.350;2022-11-03T08:51:08;14.00;99.90
22491;DHT22;11412;50.802;4.350;2022-11-03T08:53:34;14.00;99.90
22491;DHT22;11412;50.802;4.350;2022-11-03T08:56:00;14.00;99.90
22491;DHT22;11412;50.802;4.350;2022-11-03T08:58:26;14.10;99.90
22491;DHT22;11412;50.802;4.350;2022-11-03T09:00:52;14.00;99.90
22491;DHT22;11412;50.802;4.350;2022-11-03T09:03:17;14.00;99.90
22491;DHT22;11412;50.802;4.350;2022-11-03T09:05:43;14.00;99.90
22491;DHT22;11412;50.802;4.350;2022-11-03T09:08:09;14.20;99.90
22491;DHT22;11412;50.802;4.350;2022-11-03T09:10:34;14.30;99.90
22491;DHT22;11412;50.802;4.350;2022-11-03T09:13:00;14.30;99.90
22491;DHT22;11412;50.802;4.350;2022-11-03T09:15:25;14.20;99.90
22491;DHT22;11412;50.802;4.350;2022-11-03T09:17:51;14.10;99.90
22491;DHT22;11412;50.802;4.350;2022-11-03T09:20:17;14.20;99.90
22491;DHT22;11412;50.802;4.350;2022-11-03T09:22:43;14.20;99.90
22491;DHT22;11412;50.802;4.350;2022-11-03T09:25:08;14.50;99.90
22491;DHT22;11412;50.802;4.350;2022-11-03T09:27:34;14.40;99.90
22491;DHT22;11412;50.802;4.350;2022-11-03T09:30:00;14.50;99.90
22491;DHT22;11412;50.802;4.350;2022-11-03T09:32:26;14.60;99.90
22491;DHT22;11412;50.802;4.350;2022-11-03T09:34:51;14.80;99.90
22491;DHT22;11412;50.802;4.350;2022-11-03T09:37:17;14.90;99.90
22491;DHT22;11412;50.802;4.350;2022-11-03T09:39:43;15.00;99.90
22491;DHT22;11412;50.802;4.350;2022-11-03T09:42:10;15.00;99.90
22491;DHT22;11412;50.802;4.350;2022-11-03T09:44:37;15.10;99.90
22491;DHT22;11412;50.802;4.350;2022-11-03T09:47:04;15.20;99.90
22491;DHT22;11412;50.802;4.350;2022-11-03T09:49:31;15.30;99.90
22491;DHT22;11412;50.802;4.350;2022-11-03T09:52:01;15.50;99.90
22491;DHT22;11412;50.802;4.350;2022-11-03T09:54:27;15.60;99.90
22491;DHT22;11412;50.802;4.350;2022-11-03T09:56:57;15.50;99.90
22491;DHT22;11412;50.802;4.350;2022-11-03T09:59:27;15.60;99.90
22491;DHT22;11412;50.802;4.350;2022-11-03T10:01:52;15.50;99.90
22491;DHT22;11412;50.802;4.350;2022-11-03T10:04:26;15.50;99.90
22491;DHT22;11412;50.802;4.350;2022-11-03T10:06:56;15.50;99.90
22491;DHT22;11412;50.802;4.350;2022-11-03T10:09:23;15.40;99.90
22491;DHT22;11412;50.802;4.350;2022-11-03T10:11:51;15.50;99.90
22491;DHT22;11412;50.802;4.350;2022-11-03T10:14:19;15.60;99.90
22491;DHT22;11412;50.802;4.350;2022-11-03T10:16:55;15.50;99.90
22491;DHT22;11412;50.802;4.350;2022-11-03T10:19:22;15.50;99.90
22491;DHT22;11412;50.802;4.350;2022-11-03T10:21:50;15.40;99.90
22491;DHT22;11412;50.802;4.350;2022-11-03T10:24:16;15.50;99.90
22491;DHT22;11412;50.802;4.350;2022-11-03T10:26:53;15.60;99.90
22491;DHT22;11412;50.802;4.350;2022-11-03T10:29:23;15.50;99.90
22491;DHT22;11412;50.802;4.350;2022-11-03T10:31:54;15.60;99.90
22491;DHT22;11412;50.802;4.350;2022-11-03T10:34:35;15.70;99.90
22491;DHT22;11412;50.802;4.350;2022-11-03T10:37:16;15.70;99.90
22491;DHT22;11412;50.802;4.350;2022-11-03T10:39:43;15.80;99.90
22491;DHT22;11412;50.802;4.350;2022-11-03T10:42:22;15.80;99.90
22491;DHT22;11412;50.802;4.350;2022-11-03T10:47:38;15.50;99.90
22491;DHT22;11412;50.802;4.350;2022-11-03T10:50:22;15.70;99.90
22491;DHT22;11412;50.802;4.350;2022-11-03T10:52:49;15.80;99.90
22491;DHT22;11412;50.802;4.350;2022-11-03T10:55:17;15.90;99.90
22491;DHT22;11412;50.802;4.350;2022-11-03T10:57:42;15.80;99.90
22491;DHT22;11412;50.802;4.350;2022-11-03T11:00:16;15.90;99.90
22491;DHT22;11412;50.802;4.350;2022-11-03T11:02:43;15.80;99.90
22491;DHT22;11412;50.802;4.350;2022-11-03T11:05:27;16.00;99.90
22491;DHT22;11412;50.802;4.350;2022-11-03T11:07:54;16.00;99.90
22491;DHT22;11412;50.802;4.350;2022-11-03T11:10:27;16.00;99.90
22491;DHT22;11412;50.802;4.350;2022-11-03T11:15:57;16.20;99.90
22491;DHT22;11412;50.802;4.350;2022-11-03T11:20:52;16.30;99.90
22491;DHT22;11412;50.802;4.350;2022-11-03T11:28:41;16.50;99.90
22491;DHT22;11412;50.802;4.350;2022-11-03T11:31:31;16.40;99.90
22491;DHT22;11412;50.802;4.350;2022-11-03T11:36:40;16.50;99.90
22491;DHT22;11412;50.802;4.350;2022-11-03T11:44:45;17.10;99.90
22491;DHT22;11412;50.802;4.350;2022-11-03T11:49:45;16.80;99.90
22491;DHT22;11412;50.802;4.350;2022-11-03T11:52:11;16.80;99.90
22491;DHT22;11412;50.802;4.350;2022-11-03T11:54:42;16.70;99.90
22491;DHT22;11412;50.802;4.350;2022-11-03T11:57:29;16.60;99.90
22491;DHT22;11412;50.802;4.350;2022-11-03T11:59:58;16.50;99.90
22491;DHT22;11412;50.802;4.350;2022-11-03T12:02:28;16.60;99.90
22491;DHT22;11412;50.802;4.350;2022-11-03T12:04:58;16.50;99.90
22491;DHT22;11412;50.802;4.350;2022-11-03T12:07:32;16.60;99.90
22491;DHT22;11412;50.802;4.350;2022-11-03T12:10:18;16.50;99.90
22491;DHT22;11412;50.802;4.350;2022-11-03T12:12:45;16.50;99.90
22491;DHT22;11412;50.802;4.350;2022-11-03T12:18:38;16.10;99.90
22491;DHT22;11412;50.802;4.350;2022-11-03T12:21:11;16.10;99.90
22491;DHT22;11412;50.802;4.350;2022-11-03T12:23:42;15.90;99.90
22491;DHT22;11412;50.802;4.350;2022-11-03T12:28:57;15.70;99.90
22491;DHT22;11412;50.802;4.350;2022-11-03T12:31:23;15.50;99.90
22491;DHT22;11412;50.802;4.350;2022-11-03T12:33:48;15.10;99.90
22491;DHT22;11412;50.802;4.350;2022-11-03T12:36:14;15.10;99.90
22491;DHT22;11412;50.802;4.350;2022-11-03T12:38:40;15.00;99.90
22491;DHT22;11412;50.802;4.350;2022-11-03T12:41:05;15.00;99.90
22491;DHT22;11412;50.802;4.350;2022-11-03T12:43:50;14.80;99.90
22491;DHT22;11412;50.802;4.350;2022-11-03T12:46:17;15.00;99.90
22491;DHT22;11412;50.802;4.350;2022-11-03T12:48:44;15.10;99.90
22491;DHT22;11412;50.802;4.350;2022-11-03T12:51:17;14.90;99.90
22491;DHT22;11412;50.802;4.350;2022-11-03T12:53:44;15.00;99.90
22491;DHT22;11412;50.802;4.350;2022-11-03T12:56:10;14.90;99.90
22491;DHT22;11412;50.802;4.350;2022-11-03T12:58:36;14.80;99.90
22491;DHT22;11412;50.802;4.350;2022-11-03T13:01:02;14.80;99.90
22491;DHT22;11412;50.802;4.350;2022-11-03T13:03:28;14.70;99.90
22491;DHT22;11412;50.802;4.350;2022-11-03T13:05:54;14.90;99.90
22491;DHT22;11412;50.802;4.350;2022-11-03T13:08:20;14.70;99.90
22491;DHT22;11412;50.802;4.350;2022-11-03T13:10:46;14.80;99.90
22491;DHT22;11412;50.802;4.350;2022-11-03T13:13:11;14.70;99.90
22491;DHT22;11412;50.802;4.350;2022-11-03T13:15:37;14.60;99.90
22491;DHT22;11412;50.802;4.350;2022-11-03T13:18:03;14.60;99.90
22491;DHT22;11412;50.802;4.350;2022-11-03T13:20:32;14.60;99.90
22491;DHT22;11412;50.802;4.350;2022-11-03T13:22:58;14.50;99.90
22491;DHT22;11412;50.802;4.350;2022-11-03T13:25:24;14.50;99.90
22491;DHT22;11412;50.802;4.350;2022-11-03T13:27:50;14.50;99.90
22491;DHT22;11412;50.802;4.350;2022-11-03T13:30:20;14.50;99.90
22491;DHT22;11412;50.802;4.350;2022-11-03T13:32:46;14.50;99.90
22491;DHT22;11412;50.802;4.350;2022-11-03T13:35:12;14.40;99.90
22491;DHT22;11412;50.802;4.350;2022-11-03T13:37:38;14.40;99.90
22491;DHT22;11412;50.802;4.350;2022-11-03T13:40:04;14.30;99.90
22491;DHT22;11412;50.802;4.350;2022-11-03T13:42:29;14.40;99.90
22491;DHT22;11412;50.802;4.350;2022-11-03T13:44:55;14.30;99.90
22491;DHT22;11412;50.802;4.350;2022-11-03T13:47:22;14.40;99.90
22491;DHT22;11412;50.802;4.350;2022-11-03T13:49:47;14.30;99.90
22491;DHT22;11412;50.802;4.350;2022-11-03T13:52:17;14.40;99.90
22491;DHT22;11412;50.802;4.350;2022-11-03T13:54:44;14.50;99.90
22491;DHT22;11412;50.802;4.350;2022-11-03T13:57:10;14.50;99.90
22491;DHT22;11412;50.802;4.350;2022-11-03T13:59:35;14.50;99.90
22491;DHT22;11412;50.802;4.350;2022-11-03T14:02:02;14.60;99.90
22491;DHT22;11412;50.802;4.350;2022-11-03T14:04:28;14.30;99.90
22491;DHT22;11412;50.802;4.350;2022-11-03T14:06:53;14.50;99.90
22491;DHT22;11412;50.802;4.350;2022-11-03T14:09:19;14.50;99.90
22491;DHT22;11412;50.802;4.350;2022-11-03T14:11:44;14.40;99.90
22491;DHT22;11412;50.802;4.350;2022-11-03T14:16:55;14.40;99.90
22491;DHT22;11412;50.802;4.350;2022-11-03T14:19:20;14.40;99.90
22491;DHT22;11412;50.802;4.350;2022-11-03T14:21:46;14.40;99.90
22491;DHT22;11412;50.802;4.350;2022-11-03T14:24:12;14.60;99.90
22491;DHT22;11412;50.802;4.350;2022-11-03T14:26:37;14.50;99.90
22491;DHT22;11412;50.802;4.350;2022-11-03T14:29:03;14.50;99.90
22491;DHT22;11412;50.802;4.350;2022-11-03T14:31:29;14.50;99.90
22491;DHT22;11412;50.802;4.350;2022-11-03T14:33:54;14.40;99.90
22491;DHT22;11412;50.802;4.350;2022-11-03T14:36:20;14.30;99.90
22491;DHT22;11412;50.802;4.350;2022-11-03T14:38:45;14.20;99.90
22491;DHT22;11412;50.802;4.350;2022-11-03T14:41:11;14.30;99.90
22491;DHT22;11412;50.802;4.350;2022-11-03T14:43:55;14.40;99.90
22491;DHT22;11412;50.802;4.350;2022-11-03T14:46:21;14.30;99.90
22491;DHT22;11412;50.802;4.350;2022-11-03T14:48:47;14.40;99.90
22491;DHT22;11412;50.802;4.350;2022-11-03T14:51:12;14.30;99.90
22491;DHT22;11412;50.802;4.350;2022-11-03T14:53:38;14.40;99.90
22491;DHT22;11412;50.802;4.350;2022-11-03T14:56:04;14.40;99.90
22491;DHT22;11412;50.802;4.350;2022-11-03T14:58:29;14.30;99.90
22491;DHT22;11412;50.802;4.350;2022-11-03T15:00:55;14.20;99.90
22491;DHT22;11412;50.802;4.350;2022-11-03T15:03:20;14.10;99.90
22491;DHT22;11412;50.802;4.350;2022-11-03T15:05:46;14.30;99.90
22491;DHT22;11412;50.802;4.350;2022-11-03T15:08:16;14.30;99.90
22491;DHT22;11412;50.802;4.350;2022-11-03T15:10:42;14.20;99.90
22491;DHT22;11412;50.802;4.350;2022-11-03T15:13:08;14.10;99.90
22491;DHT22;11412;50.802;4.350;2022-11-03T15:15:34;14.00;99.90
22491;DHT22;11412;50.802;4.350;2022-11-03T15:18:02;14.10;99.90
22491;DHT22;11412;50.802;4.350;2022-11-03T15:20:28;14.00;99.90
22491;DHT22;11412;50.802;4.350;2022-11-03T15:22:53;13.90;99.90
22491;DHT22;11412;50.802;4.350;2022-11-03T15:25:19;14.10;99.90
22491;DHT22;11412;50.802;4.350;2022-11-03T15:27:44;13.90;99.90
22491;DHT22;11412;50.802;4.350;2022-11-03T15:30:10;14.00;99.90
22491;DHT22;11412;50.802;4.350;2022-11-03T15:32:36;13.90;99.90
22491;DHT22;11412;50.802;4.350;2022-11-03T15:35:02;13.80;99.90
22491;DHT22;11412;50.802;4.350;2022-11-03T15:37:28;13.80;99.90
22491;DHT22;11412;50.802;4.350;2022-11-03T15:39:54;14.00;99.90
22491;DHT22;11412;50.802;4.350;2022-11-03T15:42:19;13.90;99.90
22491;DHT22;11412;50.802;4.350;2022-11-03T15:44:45;13.70;99.90
22491;DHT22;11412;50.802;4.350;2022-11-03T15:47:10;13.70;99.90
22491;DHT22;11412;50.802;4.350;2022-11-03T15:49:36;13.60;99.90
22491;DHT22;11412;50.802;4.350;2022-11-03T15:52:02;13.50;99.90
22491;DHT22;11412;50.802;4.350;2022-11-03T15:54:27;13.60;99.90
22491;DHT22;11412;50.802;4.350;2022-11-03T15:56:53;13.80;99.90
22491;DHT22;11412;50.802;4.350;2022-11-03T15:59:19;14.00;99.90
22491;DHT22;11412;50.802;4.350;2022-11-03T16:01:44;13.90;99.90
22491;DHT22;11412;50.802;4.350;2022-11-03T16:04:10;13.80;99.90
22491;DHT22;11412;50.802;4.350;2022-11-03T16:06:35;13.80;99.90
22491;DHT22;11412;50.802;4.350;2022-11-03T16:09:01;13.70;99.90
22491;DHT22;11412;50.802;4.350;2022-11-03T16:11:28;13.60;99.90
22491;DHT22;11412;50.802;4.350;2022-11-03T16:13:53;13.60;99.90
22491;DHT22;11412;50.802;4.350;2022-11-03T16:16:19;13.60;99.90
22491;DHT22;11412;50.802;4.350;2022-11-03T16:18:45;13.50;99.90
22491;DHT22;11412;50.802;4.350;2022-11-03T16:21:12;13.60;99.90
22491;DHT22;11412;50.802;4.350;2022-11-03T16:23:38;13.60;99.90
22491;DHT22;11412;50.802;4.350;2022-11-03T16:26:03;13.40;99.90
22491;DHT22;11412;50.802;4.350;2022-11-03T16:28:30;13.50;99.90